sensor_id;sensor_type;location;lat;lon;timestamp;P1;durP1;ratioP1;P2;durP2;ratioP2
35959;SDS011;22043;50.970;7.192;2023-06-24T00:01:29;6.20;;;2.60;;
35959;SDS011;22043;50.970;7.192;2023-06-24T00:03:56;7.00;;;3.45;;
35959;SDS011;22043;50.970;7.192;2023-06-24T00:06:22;7.93;;;3.10;;
35959;SDS011;22043;50.970;7.192;2023-06-24T00:08:51;7.43;;;3.42;;
35959;SDS011;22043;50.970;7.192;2023-06-24T00:11:17;20.88;;;3.90;;
35959;SDS011;22043;50.970;7.192;2023-06-24T00:13:43;8.45;;;3.50;;
35959;SDS011;22043;50.970;7.192;2023-06-24T00:16:09;7.35;;;2.80;;
35959;SDS011;22043;50.970;7.192;2023-06-24T00:18:35;6.22;;;3.25;;
35959;SDS011;22043;50.970;7.192;2023-06-24T00:21:02;5.43;;;3.17;;
35959;SDS011;22043;50.970;7.192;2023-06-24T00:23:28;7.95;;;3.58;;
35959;SDS011;22043;50.970;7.192;2023-06-24T00:25:55;8.18;;;3.22;;
35959;SDS011;22043;50.970;7.192;2023-06-24T00:28:21;6.25;;;3.20;;
35959;SDS011;22043;50.970;7.192;2023-06-24T00:30:47;10.43;;;3.20;;
35959;SDS011;22043;50.970;7.192;2023-06-24T00:33:13;8.85;;;3.30;;
35959;SDS011;22043;50.970;7.192;2023-06-24T00:35:39;6.63;;;4.13;;
35959;SDS011;22043;50.970;7.192;2023-06-24T00:38:06;6.05;;;2.90;;
35959;SDS011;22043;50.970;7.192;2023-06-24T00:40:33;7.15;;;3.10;;
35959;SDS011;22043;50.970;7.192;2023-06-24T00:42:59;6.07;;;3.50;;
35959;SDS011;22043;50.970;7.192;2023-06-24T00:45:26;6.43;;;3.38;;
35959;SDS011;22043;50.970;7.192;2023-06-24T00:47:52;6.45;;;3.45;;
35959;SDS011;22043;50.970;7.192;2023-06-24T00:50:19;8.68;;;2.97;;
35959;SDS011;22043;50.970;7.192;2023-06-24T00:52:45;6.50;;;3.42;;
35959;SDS011;22043;50.970;7.192;2023-06-24T00:55:11;6.00;;;3.50;;
35959;SDS011;22043;50.970;7.192;2023-06-24T00:57:43;5.70;;;3.50;;
35959;SDS011;22043;50.970;7.192;2023-06-24T01:00:10;8.40;;;3.78;;
35959;SDS011;22043;50.970;7.192;2023-06-24T01:02:50;8.55;;;3.45;;
35959;SDS011;22043;50.970;7.192;2023-06-24T01:05:15;7.22;;;3.58;;
35959;SDS011;22043;50.970;7.192;2023-06-24T01:07:41;10.25;;;4.22;;
35959;SDS011;22043;50.970;7.192;2023-06-24T01:10:08;7.40;;;3.50;;
35959;SDS011;22043;50.970;7.192;2023-06-24T01:12:35;5.38;;;2.72;;
35959;SDS011;22043;50.970;7.192;2023-06-24T01:15:04;6.80;;;3.35;;
35959;SDS011;22043;50.970;7.192;2023-06-24T01:17:35;6.85;;;3.35;;
35959;SDS011;22043;50.970;7.192;2023-06-24T01:34:12;7.88;;;3.45;;
35959;SDS011;22043;50.970;7.192;2023-06-24T01:36:40;10.05;;;3.70;;
35959;SDS011;22043;50.970;7.192;2023-06-24T01:39:09;9.25;;;3.88;;
35959;SDS011;22043;50.970;7.192;2023-06-24T01:41:41;7.07;;;3.78;;
35959;SDS011;22043;50.970;7.192;2023-06-24T01:44:09;8.52;;;3.25;;
35959;SDS011;22043;50.970;7.192;2023-06-24T01:46:35;6.32;;;3.08;;
35959;SDS011;22043;50.970;7.192;2023-06-24T01:49:02;9.38;;;3.30;;
35959;SDS011;22043;50.970;7.192;2023-06-24T01:51:32;7.80;;;3.70;;
35959;SDS011;22043;50.970;7.192;2023-06-24T01:54:04;8.00;;;3.55;;
35959;SDS011;22043;50.970;7.192;2023-06-24T01:56:31;8.38;;;4.03;;
35959;SDS011;22043;50.970;7.192;2023-06-24T01:59:00;11.38;;;3.50;;
35959;SDS011;22043;50.970;7.192;2023-06-24T02:01:27;4.63;;;2.92;;
35959;SDS011;22043;50.970;7.192;2023-06-24T02:03:56;5.95;;;3.38;;
35959;SDS011;22043;50.970;7.192;2023-06-24T02:08:48;4.88;;;3.05;;
35959;SDS011;22043;50.970;7.192;2023-06-24T02:11:17;6.25;;;3.40;;
35959;SDS011;22043;50.970;7.192;2023-06-24T02:13:43;6.07;;;3.20;;
35959;SDS011;22043;50.970;7.192;2023-06-24T02:16:15;9.50;;;3.47;;
35959;SDS011;22043;50.970;7.192;2023-06-24T02:18:42;7.23;;;3.43;;
35959;SDS011;22043;50.970;7.192;2023-06-24T02:21:08;8.73;;;3.70;;
35959;SDS011;22043;50.970;7.192;2023-06-24T02:23:35;5.72;;;3.72;;
35959;SDS011;22043;50.970;7.192;2023-06-24T02:26:03;10.43;;;3.50;;
35959;SDS011;22043;50.970;7.192;2023-06-24T02:28:31;9.23;;;3.72;;
35959;SDS011;22043;50.970;7.192;2023-06-24T02:30:57;8.00;;;3.63;;
35959;SDS011;22043;50.970;7.192;2023-06-24T02:33:23;7.65;;;3.70;;
35959;SDS011;22043;50.970;7.192;2023-06-24T02:35:49;6.97;;;4.00;;
35959;SDS011;22043;50.970;7.192;2023-06-24T02:38:15;7.72;;;3.28;;
35959;SDS011;22043;50.970;7.192;2023-06-24T02:40:42;6.43;;;3.13;;
35959;SDS011;22043;50.970;7.192;2023-06-24T02:43:09;14.48;;;3.58;;
35959;SDS011;22043;50.970;7.192;2023-06-24T02:45:35;6.88;;;3.40;;
35959;SDS011;22043;50.970;7.192;2023-06-24T02:48:01;6.47;;;3.17;;
35959;SDS011;22043;50.970;7.192;2023-06-24T02:50:28;7.70;;;3.75;;
35959;SDS011;22043;50.970;7.192;2023-06-24T02:52:54;6.47;;;3.25;;
35959;SDS011;22043;50.970;7.192;2023-06-24T02:55:24;7.43;;;3.50;;
35959;SDS011;22043;50.970;7.192;2023-06-24T02:57:58;7.10;;;3.47;;
35959;SDS011;22043;50.970;7.192;2023-06-24T03:27:09;7.18;;;3.67;;
35959;SDS011;22043;50.970;7.192;2023-06-24T03:29:42;8.10;;;3.08;;
35959;SDS011;22043;50.970;7.192;2023-06-24T03:32:13;5.43;;;3.47;;
35959;SDS011;22043;50.970;7.192;2023-06-24T03:34:40;7.63;;;3.95;;
35959;SDS011;22043;50.970;7.192;2023-06-24T03:39:37;9.45;;;4.00;;
35959;SDS011;22043;50.970;7.192;2023-06-24T03:42:04;8.15;;;3.58;;
35959;SDS011;22043;50.970;7.192;2023-06-24T03:44:30;11.57;;;3.65;;
35959;SDS011;22043;50.970;7.192;2023-06-24T03:46:56;7.20;;;3.50;;
35959;SDS011;22043;50.970;7.192;2023-06-24T03:49:21;6.90;;;3.78;;
35959;SDS011;22043;50.970;7.192;2023-06-24T03:51:47;9.65;;;3.55;;
35959;SDS011;22043;50.970;7.192;2023-06-24T03:54:16;7.28;;;3.80;;
35959;SDS011;22043;50.970;7.192;2023-06-24T03:56:43;11.27;;;4.47;;
35959;SDS011;22043;50.970;7.192;2023-06-24T03:59:09;7.70;;;3.60;;
35959;SDS011;22043;50.970;7.192;2023-06-24T04:01:35;6.13;;;3.58;;
35959;SDS011;22043;50.970;7.192;2023-06-24T04:04:01;7.18;;;3.80;;
35959;SDS011;22043;50.970;7.192;2023-06-24T04:06:28;8.88;;;4.22;;
35959;SDS011;22043;50.970;7.192;2023-06-24T04:08:53;7.15;;;3.40;;
35959;SDS011;22043;50.970;7.192;2023-06-24T04:11:19;7.68;;;4.05;;
35959;SDS011;22043;50.970;7.192;2023-06-24T04:13:45;6.93;;;3.53;;
35959;SDS011;22043;50.970;7.192;2023-06-24T04:16:11;6.32;;;3.10;;
35959;SDS011;22043;50.970;7.192;2023-06-24T04:18:36;9.70;;;3.75;;
35959;SDS011;22043;50.970;7.192;2023-06-24T04:21:05;5.97;;;3.78;;
35959;SDS011;22043;50.970;7.192;2023-06-24T04:23:34;7.55;;;3.40;;
35959;SDS011;22043;50.970;7.192;2023-06-24T04:25:59;7.72;;;3.70;;
35959;SDS011;22043;50.970;7.192;2023-06-24T04:28:25;6.22;;;3.45;;
35959;SDS011;22043;50.970;7.192;2023-06-24T04:30:51;6.32;;;3.58;;
35959;SDS011;22043;50.970;7.192;2023-06-24T04:33:17;6.30;;;3.38;;
35959;SDS011;22043;50.970;7.192;2023-06-24T04:35:43;6.90;;;3.30;;
35959;SDS011;22043;50.970;7.192;2023-06-24T04:38:10;10.40;;;3.80;;
35959;SDS011;22043;50.970;7.192;2023-06-24T04:40:36;7.05;;;3.72;;
35959;SDS011;22043;50.970;7.192;2023-06-24T04:43:02;7.15;;;3.72;;
35959;SDS011;22043;50.970;7.192;2023-06-24T04:45:27;7.10;;;3.08;;
35959;SDS011;22043;50.970;7.192;2023-06-24T04:47:53;7.07;;;3.33;;
35959;SDS011;22043;50.970;7.192;2023-06-24T04:50:20;7.88;;;3.65;;
35959;SDS011;22043;50.970;7.192;2023-06-24T04:52:51;8.13;;;4.07;;
35959;SDS011;22043;50.970;7.192;2023-06-24T04:55:18;6.72;;;3.35;;
35959;SDS011;22043;50.970;7.192;2023-06-24T04:57:43;8.88;;;3.97;;
35959;SDS011;22043;50.970;7.192;2023-06-24T05:00:09;7.78;;;3.42;;
35959;SDS011;22043;50.970;7.192;2023-06-24T05:02:35;7.18;;;3.55;;
35959;SDS011;22043;50.970;7.192;2023-06-24T05:05:00;8.00;;;4.05;;
35959;SDS011;22043;50.970;7.192;2023-06-24T05:07:26;6.82;;;3.33;;
35959;SDS011;22043;50.970;7.192;2023-06-24T05:09:51;7.25;;;3.97;;
35959;SDS011;22043;50.970;7.192;2023-06-24T05:12:20;5.90;;;3.55;;
35959;SDS011;22043;50.970;7.192;2023-06-24T05:14:49;6.15;;;3.47;;
35959;SDS011;22043;50.970;7.192;2023-06-24T05:17:15;7.40;;;3.90;;
35959;SDS011;22043;50.970;7.192;2023-06-24T05:19:41;6.80;;;3.50;;
35959;SDS011;22043;50.970;7.192;2023-06-24T05:22:06;6.50;;;3.15;;
35959;SDS011;22043;50.970;7.192;2023-06-24T05:24:32;5.80;;;3.63;;
35959;SDS011;22043;50.970;7.192;2023-06-24T05:27:03;4.85;;;3.03;;
35959;SDS011;22043;50.970;7.192;2023-06-24T05:29:29;8.73;;;3.58;;
35959;SDS011;22043;50.970;7.192;2023-06-24T05:31:55;7.22;;;3.67;;
35959;SDS011;22043;50.970;7.192;2023-06-24T05:34:20;8.15;;;3.28;;
35959;SDS011;22043;50.970;7.192;2023-06-24T05:36:46;8.73;;;3.65;;
35959;SDS011;22043;50.970;7.192;2023-06-24T05:39:11;7.22;;;3.17;;
35959;SDS011;22043;50.970;7.192;2023-06-24T05:41:38;6.85;;;3.95;;
35959;SDS011;22043;50.970;7.192;2023-06-24T05:44:04;7.03;;;3.58;;
35959;SDS011;22043;50.970;7.192;2023-06-24T05:46:31;6.53;;;3.22;;
35959;SDS011;22043;50.970;7.192;2023-06-24T05:48:57;7.00;;;3.38;;
35959;SDS011;22043;50.970;7.192;2023-06-24T05:51:22;8.55;;;3.88;;
35959;SDS011;22043;50.970;7.192;2023-06-24T05:53:48;6.40;;;3.35;;
35959;SDS011;22043;50.970;7.192;2023-06-24T05:56:14;6.07;;;3.53;;
35959;SDS011;22043;50.970;7.192;2023-06-24T05:58:39;7.18;;;4.03;;
35959;SDS011;22043;50.970;7.192;2023-06-24T06:01:06;7.93;;;3.97;;
35959;SDS011;22043;50.970;7.192;2023-06-24T06:03:32;6.90;;;3.45;;
35959;SDS011;22043;50.970;7.192;2023-06-24T06:05:58;6.40;;;3.42;;
35959;SDS011;22043;50.970;7.192;2023-06-24T06:08:24;8.48;;;4.35;;
35959;SDS011;22043;50.970;7.192;2023-06-24T06:10:49;6.40;;;3.38;;
35959;SDS011;22043;50.970;7.192;2023-06-24T06:13:15;9.45;;;3.67;;
35959;SDS011;22043;50.970;7.192;2023-06-24T06:15:40;7.65;;;4.05;;
35959;SDS011;22043;50.970;7.192;2023-06-24T06:18:06;7.85;;;3.70;;
35959;SDS011;22043;50.970;7.192;2023-06-24T06:20:31;5.85;;;3.45;;
35959;SDS011;22043;50.970;7.192;2023-06-24T06:22:57;6.65;;;4.10;;
35959;SDS011;22043;50.970;7.192;2023-06-24T06:25:23;8.48;;;3.60;;
35959;SDS011;22043;50.970;7.192;2023-06-24T06:27:48;10.30;;;4.53;;
35959;SDS011;22043;50.970;7.192;2023-06-24T06:30:14;6.93;;;3.38;;
35959;SDS011;22043;50.970;7.192;2023-06-24T06:32:40;7.20;;;3.83;;
35959;SDS011;22043;50.970;7.192;2023-06-24T06:35:06;6.80;;;3.92;;
35959;SDS011;22043;50.970;7.192;2023-06-24T06:37:33;6.85;;;4.25;;
35959;SDS011;22043;50.970;7.192;2023-06-24T06:39:58;8.18;;;4.45;;
35959;SDS011;22043;50.970;7.192;2023-06-24T06:42:24;9.38;;;4.25;;
35959;SDS011;22043;50.970;7.192;2023-06-24T06:44:49;7.25;;;3.97;;
35959;SDS011;22043;50.970;7.192;2023-06-24T06:47:15;7.70;;;4.30;;
35959;SDS011;22043;50.970;7.192;2023-06-24T06:49:40;7.93;;;4.75;;
35959;SDS011;22043;50.970;7.192;2023-06-24T06:52:06;10.48;;;4.70;;
35959;SDS011;22043;50.970;7.192;2023-06-24T06:54:32;7.57;;;3.67;;
35959;SDS011;22043;50.970;7.192;2023-06-24T06:57:01;6.47;;;3.72;;
35959;SDS011;22043;50.970;7.192;2023-06-24T06:59:27;10.55;;;4.75;;
35959;SDS011;22043;50.970;7.192;2023-06-24T07:01:53;11.00;;;6.07;;
35959;SDS011;22043;50.970;7.192;2023-06-24T07:04:18;12.52;;;5.13;;
35959;SDS011;22043;50.970;7.192;2023-06-24T07:06:44;11.40;;;5.45;;
35959;SDS011;22043;50.970;7.192;2023-06-24T07:09:10;10.63;;;4.93;;
35959;SDS011;22043;50.970;7.192;2023-06-24T07:11:39;8.00;;;4.18;;
35959;SDS011;22043;50.970;7.192;2023-06-24T07:14:05;10.18;;;4.85;;
35959;SDS011;22043;50.970;7.192;2023-06-24T07:19:05;11.98;;;5.30;;
35959;SDS011;22043;50.970;7.192;2023-06-24T07:21:30;8.48;;;4.38;;
35959;SDS011;22043;50.970;7.192;2023-06-24T07:23:57;9.50;;;5.10;;
35959;SDS011;22043;50.970;7.192;2023-06-24T07:26:30;8.88;;;4.53;;
35959;SDS011;22043;50.970;7.192;2023-06-24T07:28:58;10.55;;;4.82;;
35959;SDS011;22043;50.970;7.192;2023-06-24T07:31:24;11.50;;;6.32;;
35959;SDS011;22043;50.970;7.192;2023-06-24T07:33:56;8.55;;;4.95;;
35959;SDS011;22043;50.970;7.192;2023-06-24T07:36:22;9.45;;;5.35;;
35959;SDS011;22043;50.970;7.192;2023-06-24T07:38:48;9.15;;;5.15;;
35959;SDS011;22043;50.970;7.192;2023-06-24T07:41:13;8.88;;;4.95;;
35959;SDS011;22043;50.970;7.192;2023-06-24T07:43:42;10.80;;;5.80;;
35959;SDS011;22043;50.970;7.192;2023-06-24T07:46:07;9.45;;;5.32;;
35959;SDS011;22043;50.970;7.192;2023-06-24T07:48:33;12.80;;;6.40;;
35959;SDS011;22043;50.970;7.192;2023-06-24T07:50:59;11.73;;;6.13;;
35959;SDS011;22043;50.970;7.192;2023-06-24T07:53:25;10.75;;;6.60;;
35959;SDS011;22043;50.970;7.192;2023-06-24T07:55:50;10.82;;;6.05;;
35959;SDS011;22043;50.970;7.192;2023-06-24T07:58:16;10.68;;;5.93;;
35959;SDS011;22043;50.970;7.192;2023-06-24T08:00:41;10.13;;;4.95;;
35959;SDS011;22043;50.970;7.192;2023-06-24T08:03:07;8.63;;;5.05;;
35959;SDS011;22043;50.970;7.192;2023-06-24T08:05:33;12.15;;;5.55;;
35959;SDS011;22043;50.970;7.192;2023-06-24T08:18:46;13.82;;;8.10;;
35959;SDS011;22043;50.970;7.192;2023-06-24T08:21:13;14.40;;;7.65;;
35959;SDS011;22043;50.970;7.192;2023-06-24T08:23:39;16.02;;;7.00;;
35959;SDS011;22043;50.970;7.192;2023-06-24T08:26:06;12.23;;;7.65;;
35959;SDS011;22043;50.970;7.192;2023-06-24T08:28:32;17.42;;;9.00;;
35959;SDS011;22043;50.970;7.192;2023-06-24T08:30:58;15.23;;;9.10;;
35959;SDS011;22043;50.970;7.192;2023-06-24T08:33:24;18.00;;;8.25;;
35959;SDS011;22043;50.970;7.192;2023-06-24T08:35:50;22.63;;;9.10;;
35959;SDS011;22043;50.970;7.192;2023-06-24T08:38:15;11.88;;;6.80;;
35959;SDS011;22043;50.970;7.192;2023-06-24T08:40:41;18.23;;;8.57;;
35959;SDS011;22043;50.970;7.192;2023-06-24T08:45:49;12.50;;;6.93;;
35959;SDS011;22043;50.970;7.192;2023-06-24T08:48:18;14.10;;;6.28;;
35959;SDS011;22043;50.970;7.192;2023-06-24T08:50:46;10.70;;;5.85;;
35959;SDS011;22043;50.970;7.192;2023-06-24T08:53:13;10.10;;;5.32;;
35959;SDS011;22043;50.970;7.192;2023-06-24T08:55:40;13.63;;;7.03;;
35959;SDS011;22043;50.970;7.192;2023-06-24T08:58:06;11.38;;;5.68;;
35959;SDS011;22043;50.970;7.192;2023-06-24T09:00:32;12.43;;;5.85;;
35959;SDS011;22043;50.970;7.192;2023-06-24T09:02:58;25.65;;;12.88;;
35959;SDS011;22043;50.970;7.192;2023-06-24T09:05:24;15.85;;;8.68;;
35959;SDS011;22043;50.970;7.192;2023-06-24T09:07:53;12.70;;;7.55;;
35959;SDS011;22043;50.970;7.192;2023-06-24T09:18:30;11.32;;;6.35;;
35959;SDS011;22043;50.970;7.192;2023-06-24T09:20:59;13.73;;;6.95;;
35959;SDS011;22043;50.970;7.192;2023-06-24T09:23:27;9.52;;;4.25;;
35959;SDS011;22043;50.970;7.192;2023-06-24T09:26:00;12.55;;;7.53;;
35959;SDS011;22043;50.970;7.192;2023-06-24T09:29:02;10.00;;;5.10;;
35959;SDS011;22043;50.970;7.192;2023-06-24T09:55:48;10.77;;;5.28;;
35959;SDS011;22043;50.970;7.192;2023-06-24T09:58:20;10.88;;;5.00;;
35959;SDS011;22043;50.970;7.192;2023-06-24T10:01:07;12.15;;;6.68;;
35959;SDS011;22043;50.970;7.192;2023-06-24T10:03:33;12.48;;;6.85;;
35959;SDS011;22043;50.970;7.192;2023-06-24T10:11:23;15.43;;;8.25;;
35959;SDS011;22043;50.970;7.192;2023-06-24T10:50:28;11.20;;;4.32;;
35959;SDS011;22043;50.970;7.192;2023-06-24T10:53:10;9.63;;;4.15;;
35959;SDS011;22043;50.970;7.192;2023-06-24T10:55:46;23.63;;;13.10;;
35959;SDS011;22043;50.970;7.192;2023-06-24T10:58:19;16.05;;;7.63;;
35959;SDS011;22043;50.970;7.192;2023-06-24T11:00:45;12.95;;;6.45;;
35959;SDS011;22043;50.970;7.192;2023-06-24T11:03:15;10.95;;;4.95;;
35959;SDS011;22043;50.970;7.192;2023-06-24T11:05:43;7.82;;;2.70;;
35959;SDS011;22043;50.970;7.192;2023-06-24T11:08:10;9.55;;;4.30;;
35959;SDS011;22043;50.970;7.192;2023-06-24T11:11:11;9.60;;;4.78;;
35959;SDS011;22043;50.970;7.192;2023-06-24T11:13:33;9.18;;;2.97;;
35959;SDS011;22043;50.970;7.192;2023-06-24T11:15:59;14.02;;;5.75;;
35959;SDS011;22043;50.970;7.192;2023-06-24T11:18:46;10.02;;;4.35;;
35959;SDS011;22043;50.970;7.192;2023-06-24T11:21:11;10.15;;;5.35;;
35959;SDS011;22043;50.970;7.192;2023-06-24T11:23:36;5.43;;;2.58;;
35959;SDS011;22043;50.970;7.192;2023-06-24T11:26:03;6.03;;;2.90;;
35959;SDS011;22043;50.970;7.192;2023-06-24T11:28:40;4.93;;;2.47;;
35959;SDS011;22043;50.970;7.192;2023-06-24T11:31:06;6.53;;;1.98;;
35959;SDS011;22043;50.970;7.192;2023-06-24T11:33:35;4.60;;;2.50;;
35959;SDS011;22043;50.970;7.192;2023-06-24T11:36:00;4.75;;;2.10;;
35959;SDS011;22043;50.970;7.192;2023-06-24T11:38:29;4.25;;;2.00;;
35959;SDS011;22043;50.970;7.192;2023-06-24T11:40:57;3.20;;;1.80;;
35959;SDS011;22043;50.970;7.192;2023-06-24T11:43:25;4.28;;;2.08;;
35959;SDS011;22043;50.970;7.192;2023-06-24T11:45:55;4.40;;;1.83;;
35959;SDS011;22043;50.970;7.192;2023-06-24T11:48:20;12.63;;;7.93;;
35959;SDS011;22043;50.970;7.192;2023-06-24T11:50:52;10.32;;;5.05;;
35959;SDS011;22043;50.970;7.192;2023-06-24T11:53:40;10.15;;;5.35;;
35959;SDS011;22043;50.970;7.192;2023-06-24T12:50:09;4.00;;;2.25;;
35959;SDS011;22043;50.970;7.192;2023-06-24T12:52:35;6.07;;;2.53;;
35959;SDS011;22043;50.970;7.192;2023-06-24T12:55:02;4.82;;;2.58;;
35959;SDS011;22043;50.970;7.192;2023-06-24T12:57:29;21.30;;;8.47;;
35959;SDS011;22043;50.970;7.192;2023-06-24T12:59:54;14.77;;;5.13;;
35959;SDS011;22043;50.970;7.192;2023-06-24T13:02:20;9.80;;;4.57;;
35959;SDS011;22043;50.970;7.192;2023-06-24T13:04:48;4.15;;;2.30;;
35959;SDS011;22043;50.970;7.192;2023-06-24T13:07:13;6.75;;;2.65;;
35959;SDS011;22043;50.970;7.192;2023-06-24T13:09:39;5.53;;;2.85;;
35959;SDS011;22043;50.970;7.192;2023-06-24T13:12:05;5.50;;;2.35;;
35959;SDS011;22043;50.970;7.192;2023-06-24T13:14:30;4.65;;;1.95;;
35959;SDS011;22043;50.970;7.192;2023-06-24T13:17:02;4.20;;;2.03;;
35959;SDS011;22043;50.970;7.192;2023-06-24T13:19:27;5.15;;;2.25;;
35959;SDS011;22043;50.970;7.192;2023-06-24T13:21:53;5.20;;;2.53;;
35959;SDS011;22043;50.970;7.192;2023-06-24T13:24:18;6.10;;;2.20;;
35959;SDS011;22043;50.970;7.192;2023-06-24T13:26:44;4.25;;;2.05;;
35959;SDS011;22043;50.970;7.192;2023-06-24T13:29:09;5.00;;;2.38;;
35959;SDS011;22043;50.970;7.192;2023-06-24T13:31:35;8.90;;;3.30;;
35959;SDS011;22043;50.970;7.192;2023-06-24T13:34:01;3.75;;;1.85;;
35959;SDS011;22043;50.970;7.192;2023-06-24T13:36:31;7.15;;;2.58;;
35959;SDS011;22043;50.970;7.192;2023-06-24T13:38:58;5.72;;;2.20;;
35959;SDS011;22043;50.970;7.192;2023-06-24T13:41:23;7.22;;;1.92;;
35959;SDS011;22043;50.970;7.192;2023-06-24T13:43:51;8.57;;;3.05;;
35959;SDS011;22043;50.970;7.192;2023-06-24T13:46:16;3.65;;;2.30;;
35959;SDS011;22043;50.970;7.192;2023-06-24T13:48:42;4.68;;;1.73;;
35959;SDS011;22043;50.970;7.192;2023-06-24T13:51:10;5.65;;;2.08;;
35959;SDS011;22043;50.970;7.192;2023-06-24T13:53:35;4.40;;;2.08;;
35959;SDS011;22043;50.970;7.192;2023-06-24T13:56:01;9.85;;;1.95;;
35959;SDS011;22043;50.970;7.192;2023-06-24T13:58:26;4.72;;;2.20;;
35959;SDS011;22043;50.970;7.192;2023-06-24T14:00:51;4.75;;;2.70;;
35959;SDS011;22043;50.970;7.192;2023-06-24T14:03:18;4.00;;;1.67;;
35959;SDS011;22043;50.970;7.192;2023-06-24T14:05:43;4.32;;;2.22;;
35959;SDS011;22043;50.970;7.192;2023-06-24T14:08:09;7.13;;;2.20;;
35959;SDS011;22043;50.970;7.192;2023-06-24T14:10:34;3.58;;;1.90;;
35959;SDS011;22043;50.970;7.192;2023-06-24T14:13:00;7.72;;;2.50;;
35959;SDS011;22043;50.970;7.192;2023-06-24T14:15:26;4.63;;;1.85;;
35959;SDS011;22043;50.970;7.192;2023-06-24T14:17:51;4.90;;;2.05;;
35959;SDS011;22043;50.970;7.192;2023-06-24T14:20:17;4.82;;;2.00;;
35959;SDS011;22043;50.970;7.192;2023-06-24T14:22:42;6.63;;;2.08;;
35959;SDS011;22043;50.970;7.192;2023-06-24T14:25:17;4.90;;;1.85;;
35959;SDS011;22043;50.970;7.192;2023-06-24T14:27:42;6.28;;;2.28;;
35959;SDS011;22043;50.970;7.192;2023-06-24T14:30:09;5.18;;;2.30;;
35959;SDS011;22043;50.970;7.192;2023-06-24T14:32:34;6.95;;;2.15;;
35959;SDS011;22043;50.970;7.192;2023-06-24T14:35:00;9.55;;;2.78;;
35959;SDS011;22043;50.970;7.192;2023-06-24T14:37:25;7.05;;;3.00;;
35959;SDS011;22043;50.970;7.192;2023-06-24T14:39:51;4.10;;;2.08;;
35959;SDS011;22043;50.970;7.192;2023-06-24T14:42:16;5.55;;;2.08;;
35959;SDS011;22043;50.970;7.192;2023-06-24T14:44:42;3.80;;;1.90;;
35959;SDS011;22043;50.970;7.192;2023-06-24T14:47:07;4.25;;;2.10;;
35959;SDS011;22043;50.970;7.192;2023-06-24T14:49:33;5.80;;;2.03;;
35959;SDS011;22043;50.970;7.192;2023-06-24T14:51:58;5.10;;;2.42;;
35959;SDS011;22043;50.970;7.192;2023-06-24T14:54:24;4.97;;;1.88;;
35959;SDS011;22043;50.970;7.192;2023-06-24T14:56:49;5.13;;;1.92;;
35959;SDS011;22043;50.970;7.192;2023-06-24T14:59:14;5.60;;;2.17;;
35959;SDS011;22043;50.970;7.192;2023-06-24T15:01:40;3.95;;;2.00;;
35959;SDS011;22043;50.970;7.192;2023-06-24T15:04:05;4.35;;;1.95;;
35959;SDS011;22043;50.970;7.192;2023-06-24T15:06:31;6.88;;;1.80;;
35959;SDS011;22043;50.970;7.192;2023-06-24T15:08:56;5.45;;;2.20;;
35959;SDS011;22043;50.970;7.192;2023-06-24T15:11:22;6.28;;;2.10;;
35959;SDS011;22043;50.970;7.192;2023-06-24T15:13:47;4.57;;;2.50;;
35959;SDS011;22043;50.970;7.192;2023-06-24T15:16:13;5.35;;;2.15;;
35959;SDS011;22043;50.970;7.192;2023-06-24T15:18:45;4.78;;;2.08;;
35959;SDS011;22043;50.970;7.192;2023-06-24T15:21:11;5.03;;;1.92;;
35959;SDS011;22043;50.970;7.192;2023-06-24T15:23:37;5.00;;;2.28;;
35959;SDS011;22043;50.970;7.192;2023-06-24T15:26:02;5.47;;;2.10;;
35959;SDS011;22043;50.970;7.192;2023-06-24T15:28:29;6.28;;;1.98;;
35959;SDS011;22043;50.970;7.192;2023-06-24T15:30:54;3.53;;;1.70;;
35959;SDS011;22043;50.970;7.192;2023-06-24T15:33:20;5.40;;;2.10;;
35959;SDS011;22043;50.970;7.192;2023-06-24T15:35:45;3.88;;;1.63;;
35959;SDS011;22043;50.970;7.192;2023-06-24T15:38:11;5.03;;;1.60;;
35959;SDS011;22043;50.970;7.192;2023-06-24T15:40:39;4.95;;;1.85;;
35959;SDS011;22043;50.970;7.192;2023-06-24T15:43:05;6.07;;;2.10;;
35959;SDS011;22043;50.970;7.192;2023-06-24T15:45:36;3.47;;;1.73;;
35959;SDS011;22043;50.970;7.192;2023-06-24T15:48:03;3.65;;;1.63;;
35959;SDS011;22043;50.970;7.192;2023-06-24T15:50:28;3.83;;;1.65;;
35959;SDS011;22043;50.970;7.192;2023-06-24T15:52:54;6.65;;;1.95;;
35959;SDS011;22043;50.970;7.192;2023-06-24T15:55:22;3.92;;;1.80;;
35959;SDS011;22043;50.970;7.192;2023-06-24T15:57:47;3.72;;;1.75;;
35959;SDS011;22043;50.970;7.192;2023-06-24T16:00:13;4.63;;;1.60;;
35959;SDS011;22043;50.970;7.192;2023-06-24T16:02:39;6.03;;;2.28;;
35959;SDS011;22043;50.970;7.192;2023-06-24T16:05:06;4.00;;;1.40;;
35959;SDS011;22043;50.970;7.192;2023-06-24T16:07:32;4.15;;;1.80;;
35959;SDS011;22043;50.970;7.192;2023-06-24T16:09:58;3.80;;;1.80;;
35959;SDS011;22043;50.970;7.192;2023-06-24T16:12:23;4.03;;;1.77;;
35959;SDS011;22043;50.970;7.192;2023-06-24T16:14:49;4.30;;;2.10;;
35959;SDS011;22043;50.970;7.192;2023-06-24T16:17:14;4.05;;;1.40;;
35959;SDS011;22043;50.970;7.192;2023-06-24T16:19:44;4.75;;;1.52;;
35959;SDS011;22043;50.970;7.192;2023-06-24T16:22:10;5.00;;;1.20;;
35959;SDS011;22043;50.970;7.192;2023-06-24T16:24:36;7.43;;;1.27;;
35959;SDS011;22043;50.970;7.192;2023-06-24T16:27:02;4.07;;;1.40;;
35959;SDS011;22043;50.970;7.192;2023-06-24T16:29:28;3.40;;;1.50;;
35959;SDS011;22043;50.970;7.192;2023-06-24T16:31:53;5.70;;;1.90;;
35959;SDS011;22043;50.970;7.192;2023-06-24T16:34:19;5.32;;;2.00;;
35959;SDS011;22043;50.970;7.192;2023-06-24T16:36:44;4.53;;;1.30;;
35959;SDS011;22043;50.970;7.192;2023-06-24T16:39:09;4.00;;;1.10;;
35959;SDS011;22043;50.970;7.192;2023-06-24T16:41:35;4.57;;;1.00;;
35959;SDS011;22043;50.970;7.192;2023-06-24T16:44:00;6.40;;;2.95;;
35959;SDS011;22043;50.970;7.192;2023-06-24T16:46:26;7.57;;;2.42;;
35959;SDS011;22043;50.970;7.192;2023-06-24T16:48:54;2.90;;;1.15;;
35959;SDS011;22043;50.970;7.192;2023-06-24T16:51:32;3.67;;;1.85;;
35959;SDS011;22043;50.970;7.192;2023-06-24T16:53:58;3.47;;;1.48;;
35959;SDS011;22043;50.970;7.192;2023-06-24T16:56:23;3.75;;;1.52;;
35959;SDS011;22043;50.970;7.192;2023-06-24T16:58:49;3.80;;;1.48;;
35959;SDS011;22043;50.970;7.192;2023-06-24T17:01:14;2.80;;;1.40;;
35959;SDS011;22043;50.970;7.192;2023-06-24T17:03:41;3.47;;;1.40;;
35959;SDS011;22043;50.970;7.192;2023-06-24T17:06:18;3.35;;;1.33;;
35959;SDS011;22043;50.970;7.192;2023-06-24T17:09:55;4.03;;;1.40;;
35959;SDS011;22043;50.970;7.192;2023-06-24T17:12:20;3.20;;;1.75;;
35959;SDS011;22043;50.970;7.192;2023-06-24T17:14:46;2.78;;;1.33;;
35959;SDS011;22043;50.970;7.192;2023-06-24T17:17:32;5.38;;;2.83;;
35959;SDS011;22043;50.970;7.192;2023-06-24T17:19:59;3.25;;;1.63;;
35959;SDS011;22043;50.970;7.192;2023-06-24T17:22:25;4.63;;;2.38;;
35959;SDS011;22043;50.970;7.192;2023-06-24T17:24:50;3.92;;;1.90;;
35959;SDS011;22043;50.970;7.192;2023-06-24T17:27:16;3.78;;;1.73;;
35959;SDS011;22043;50.970;7.192;2023-06-24T17:29:41;4.15;;;1.55;;
35959;SDS011;22043;50.970;7.192;2023-06-24T17:32:07;5.07;;;1.73;;
35959;SDS011;22043;50.970;7.192;2023-06-24T17:34:32;7.55;;;3.63;;
35959;SDS011;22043;50.970;7.192;2023-06-24T17:37:05;7.75;;;2.97;;
35959;SDS011;22043;50.970;7.192;2023-06-24T17:39:38;9.20;;;4.05;;
35959;SDS011;22043;50.970;7.192;2023-06-24T17:42:05;26.70;;;5.82;;
35959;SDS011;22043;50.970;7.192;2023-06-24T17:44:30;8.25;;;2.55;;
35959;SDS011;22043;50.970;7.192;2023-06-24T17:49:44;11.10;;;3.03;;
35959;SDS011;22043;50.970;7.192;2023-06-24T17:52:10;3.58;;;1.50;;
35959;SDS011;22043;50.970;7.192;2023-06-24T17:54:35;3.30;;;1.42;;
35959;SDS011;22043;50.970;7.192;2023-06-24T17:57:01;3.63;;;2.13;;
35959;SDS011;22043;50.970;7.192;2023-06-24T17:59:26;4.68;;;2.28;;